sensor_id;sensor_type;location;lat;lon;timestamp;P1;durP1;ratioP1;P2;durP2;ratioP2
18140;SDS011;9196;49.194;12.526;2024-01-11T00:02:01;38.45;;;20.38;;
18140;SDS011;9196;49.194;12.526;2024-01-11T00:04:29;42.15;;;20.45;;
18140;SDS011;9196;49.194;12.526;2024-01-11T00:06:56;32.33;;;17.85;;
18140;SDS011;9196;49.194;12.526;2024-01-11T00:09:22;36.78;;;19.17;;
18140;SDS011;9196;49.194;12.526;2024-01-11T00:11:49;32.45;;;18.67;;
18140;SDS011;9196;49.194;12.526;2024-01-11T00:14:16;40.65;;;22.08;;
18140;SDS011;9196;49.194;12.526;2024-01-11T00:16:43;30.63;;;19.95;;
18140;SDS011;9196;49.194;12.526;2024-01-11T00:19:10;34.42;;;21.13;;
18140;SDS011;9196;49.194;12.526;2024-01-11T00:21:38;34.20;;;19.50;;
18140;SDS011;9196;49.194;12.526;2024-01-11T00:24:05;29.63;;;20.05;;
18140;SDS011;9196;49.194;12.526;2024-01-11T00:26:31;32.53;;;21.38;;
18140;SDS011;9196;49.194;12.526;2024-01-11T00:28:58;38.03;;;20.67;;
18140;SDS011;9196;49.194;12.526;2024-01-11T00:31:25;34.33;;;21.20;;
18140;SDS011;9196;49.194;12.526;2024-01-11T00:33:52;32.72;;;20.52;;
18140;SDS011;9196;49.194;12.526;2024-01-11T00:36:19;40.60;;;22.55;;
18140;SDS011;9196;49.194;12.526;2024-01-11T00:38:47;36.95;;;21.50;;
18140;SDS011;9196;49.194;12.526;2024-01-11T00:41:14;35.00;;;21.38;;
18140;SDS011;9196;49.194;12.526;2024-01-11T00:43:41;34.13;;;20.08;;
18140;SDS011;9196;49.194;12.526;2024-01-11T00:46:07;31.52;;;19.88;;
18140;SDS011;9196;49.194;12.526;2024-01-11T00:48:34;36.20;;;21.30;;
18140;SDS011;9196;49.194;12.526;2024-01-11T00:51:01;40.75;;;20.65;;
18140;SDS011;9196;49.194;12.526;2024-01-11T00:53:29;36.10;;;21.50;;
18140;SDS011;9196;49.194;12.526;2024-01-11T00:55:57;32.72;;;19.98;;
18140;SDS011;9196;49.194;12.526;2024-01-11T00:58:24;43.13;;;22.05;;
18140;SDS011;9196;49.194;12.526;2024-01-11T01:00:52;32.38;;;21.63;;
18140;SDS011;9196;49.194;12.526;2024-01-11T01:03:20;43.30;;;20.08;;
18140;SDS011;9196;49.194;12.526;2024-01-11T01:05:47;33.75;;;20.65;;
18140;SDS011;9196;49.194;12.526;2024-01-11T01:08:14;36.28;;;20.58;;
18140;SDS011;9196;49.194;12.526;2024-01-11T01:10:41;38.42;;;20.55;;
18140;SDS011;9196;49.194;12.526;2024-01-11T01:13:09;38.75;;;20.42;;
18140;SDS011;9196;49.194;12.526;2024-01-11T01:15:36;38.03;;;22.40;;
18140;SDS011;9196;49.194;12.526;2024-01-11T01:18:03;40.45;;;23.02;;
18140;SDS011;9196;49.194;12.526;2024-01-11T01:20:30;40.17;;;21.67;;
18140;SDS011;9196;49.194;12.526;2024-01-11T01:22:57;31.45;;;18.63;;
18140;SDS011;9196;49.194;12.526;2024-01-11T01:25:24;37.47;;;20.15;;
18140;SDS011;9196;49.194;12.526;2024-01-11T01:27:51;36.95;;;19.65;;
18140;SDS011;9196;49.194;12.526;2024-01-11T01:30:19;29.88;;;20.38;;
18140;SDS011;9196;49.194;12.526;2024-01-11T01:32:46;34.85;;;21.60;;
18140;SDS011;9196;49.194;12.526;2024-01-11T01:35:13;30.88;;;18.63;;
18140;SDS011;9196;49.194;12.526;2024-01-11T01:37:40;33.92;;;21.10;;
18140;SDS011;9196;49.194;12.526;2024-01-11T01:40:08;36.92;;;21.88;;
18140;SDS011;9196;49.194;12.526;2024-01-11T01:42:35;31.17;;;19.10;;
18140;SDS011;9196;49.194;12.526;2024-01-11T01:45:07;41.67;;;21.15;;
18140;SDS011;9196;49.194;12.526;2024-01-11T01:47:35;41.58;;;20.15;;
18140;SDS011;9196;49.194;12.526;2024-01-11T01:50:03;34.97;;;21.17;;
18140;SDS011;9196;49.194;12.526;2024-01-11T01:52:31;35.95;;;21.30;;
18140;SDS011;9196;49.194;12.526;2024-01-11T01:54:59;47.47;;;24.27;;
18140;SDS011;9196;49.194;12.526;2024-01-11T01:57:29;46.80;;;26.77;;
18140;SDS011;9196;49.194;12.526;2024-01-11T01:59:59;49.38;;;26.20;;
18140;SDS011;9196;49.194;12.526;2024-01-11T02:02:26;45.30;;;26.42;;
18140;SDS011;9196;49.194;12.526;2024-01-11T02:04:56;43.35;;;24.27;;
18140;SDS011;9196;49.194;12.526;2024-01-11T02:07:23;48.08;;;25.55;;
18140;SDS011;9196;49.194;12.526;2024-01-11T02:09:50;51.10;;;24.65;;
18140;SDS011;9196;49.194;12.526;2024-01-11T02:12:18;45.03;;;24.27;;
18140;SDS011;9196;49.194;12.526;2024-01-11T02:14:46;53.67;;;24.58;;
18140;SDS011;9196;49.194;12.526;2024-01-11T02:17:13;45.95;;;25.80;;
18140;SDS011;9196;49.194;12.526;2024-01-11T02:19:40;41.65;;;24.67;;
18140;SDS011;9196;49.194;12.526;2024-01-11T02:22:11;44.88;;;24.25;;
18140;SDS011;9196;49.194;12.526;2024-01-11T02:24:42;39.35;;;23.42;;
18140;SDS011;9196;49.194;12.526;2024-01-11T02:27:09;47.47;;;23.40;;
18140;SDS011;9196;49.194;12.526;2024-01-11T02:29:36;37.53;;;22.55;;
18140;SDS011;9196;49.194;12.526;2024-01-11T02:32:03;43.85;;;23.52;;
18140;SDS011;9196;49.194;12.526;2024-01-11T02:34:31;37.45;;;22.83;;
18140;SDS011;9196;49.194;12.526;2024-01-11T02:36:58;36.88;;;20.10;;
18140;SDS011;9196;49.194;12.526;2024-01-11T02:39:25;29.40;;;19.38;;
18140;SDS011;9196;49.194;12.526;2024-01-11T02:41:55;36.53;;;22.25;;
18140;SDS011;9196;49.194;12.526;2024-01-11T02:44:22;36.33;;;21.33;;
18140;SDS011;9196;49.194;12.526;2024-01-11T02:46:49;36.15;;;20.33;;
18140;SDS011;9196;49.194;12.526;2024-01-11T02:49:16;38.08;;;21.67;;
18140;SDS011;9196;49.194;12.526;2024-01-11T02:51:43;39.13;;;22.42;;
18140;SDS011;9196;49.194;12.526;2024-01-11T02:54:10;38.08;;;21.10;;
18140;SDS011;9196;49.194;12.526;2024-01-11T02:56:37;33.58;;;20.17;;
18140;SDS011;9196;49.194;12.526;2024-01-11T02:59:05;29.90;;;19.60;;
18140;SDS011;9196;49.194;12.526;2024-01-11T03:01:32;37.28;;;20.42;;
18140;SDS011;9196;49.194;12.526;2024-01-11T03:03:59;32.83;;;20.23;;
18140;SDS011;9196;49.194;12.526;2024-01-11T03:06:26;33.03;;;19.83;;
18140;SDS011;9196;49.194;12.526;2024-01-11T03:08:53;38.03;;;21.00;;
18140;SDS011;9196;49.194;12.526;2024-01-11T03:11:20;33.15;;;20.08;;
18140;SDS011;9196;49.194;12.526;2024-01-11T03:13:46;34.33;;;22.10;;
18140;SDS011;9196;49.194;12.526;2024-01-11T03:16:14;37.30;;;21.38;;
18140;SDS011;9196;49.194;12.526;2024-01-11T03:18:41;31.15;;;20.10;;
18140;SDS011;9196;49.194;12.526;2024-01-11T03:21:08;34.85;;;21.15;;
18140;SDS011;9196;49.194;12.526;2024-01-11T03:23:35;34.05;;;21.50;;
18140;SDS011;9196;49.194;12.526;2024-01-11T03:26:02;35.08;;;20.30;;
18140;SDS011;9196;49.194;12.526;2024-01-11T03:28:29;40.13;;;21.98;;
18140;SDS011;9196;49.194;12.526;2024-01-11T03:30:56;33.00;;;20.63;;
18140;SDS011;9196;49.194;12.526;2024-01-11T03:33:24;35.08;;;21.40;;
18140;SDS011;9196;49.194;12.526;2024-01-11T03:35:51;35.17;;;22.43;;
18140;SDS011;9196;49.194;12.526;2024-01-11T03:38:18;29.80;;;18.50;;
18140;SDS011;9196;49.194;12.526;2024-01-11T03:40:45;38.83;;;21.63;;
18140;SDS011;9196;49.194;12.526;2024-01-11T03:43:12;34.75;;;19.02;;
18140;SDS011;9196;49.194;12.526;2024-01-11T03:45:38;36.90;;;20.23;;
18140;SDS011;9196;49.194;12.526;2024-01-11T03:48:05;40.55;;;20.92;;
18140;SDS011;9196;49.194;12.526;2024-01-11T03:50:33;33.63;;;19.17;;
18140;SDS011;9196;49.194;12.526;2024-01-11T03:53:00;32.90;;;20.13;;
18140;SDS011;9196;49.194;12.526;2024-01-11T03:55:27;31.20;;;18.70;;
18140;SDS011;9196;49.194;12.526;2024-01-11T03:57:54;35.35;;;20.92;;
18140;SDS011;9196;49.194;12.526;2024-01-11T04:00:21;32.53;;;18.80;;
18140;SDS011;9196;49.194;12.526;2024-01-11T04:02:48;26.20;;;17.70;;
18140;SDS011;9196;49.194;12.526;2024-01-11T04:05:15;32.35;;;19.48;;
18140;SDS011;9196;49.194;12.526;2024-01-11T04:07:43;36.05;;;20.38;;
18140;SDS011;9196;49.194;12.526;2024-01-11T04:10:10;31.95;;;18.65;;
18140;SDS011;9196;49.194;12.526;2024-01-11T04:12:37;33.40;;;18.58;;
18140;SDS011;9196;49.194;12.526;2024-01-11T04:15:04;40.58;;;25.48;;
18140;SDS011;9196;49.194;12.526;2024-01-11T04:17:31;57.97;;;30.15;;
18140;SDS011;9196;49.194;12.526;2024-01-11T04:19:58;56.42;;;27.67;;
18140;SDS011;9196;49.194;12.526;2024-01-11T04:22:25;45.13;;;25.55;;
18140;SDS011;9196;49.194;12.526;2024-01-11T04:24:55;49.28;;;25.67;;
18140;SDS011;9196;49.194;12.526;2024-01-11T04:27:22;47.72;;;28.30;;
18140;SDS011;9196;49.194;12.526;2024-01-11T04:29:48;52.25;;;29.23;;
18140;SDS011;9196;49.194;12.526;2024-01-11T04:32:15;46.92;;;26.40;;
18140;SDS011;9196;49.194;12.526;2024-01-11T04:34:42;51.45;;;27.50;;
18140;SDS011;9196;49.194;12.526;2024-01-11T04:37:09;46.30;;;26.70;;
18140;SDS011;9196;49.194;12.526;2024-01-11T04:39:35;43.08;;;23.85;;
18140;SDS011;9196;49.194;12.526;2024-01-11T04:42:04;43.55;;;21.42;;
18140;SDS011;9196;49.194;12.526;2024-01-11T04:44:30;40.10;;;21.58;;
18140;SDS011;9196;49.194;12.526;2024-01-11T04:46:57;38.13;;;21.77;;
18140;SDS011;9196;49.194;12.526;2024-01-11T04:49:24;38.88;;;22.02;;
18140;SDS011;9196;49.194;12.526;2024-01-11T04:51:51;42.83;;;21.50;;
18140;SDS011;9196;49.194;12.526;2024-01-11T04:54:18;37.45;;;19.98;;
18140;SDS011;9196;49.194;12.526;2024-01-11T04:56:44;33.03;;;19.00;;
18140;SDS011;9196;49.194;12.526;2024-01-11T04:59:12;34.13;;;19.20;;
18140;SDS011;9196;49.194;12.526;2024-01-11T05:01:39;40.95;;;19.55;;
18140;SDS011;9196;49.194;12.526;2024-01-11T05:04:07;34.58;;;18.10;;
18140;SDS011;9196;49.194;12.526;2024-01-11T05:06:35;31.77;;;19.63;;
18140;SDS011;9196;49.194;12.526;2024-01-11T05:09:02;30.77;;;19.08;;
18140;SDS011;9196;49.194;12.526;2024-01-11T05:11:29;30.77;;;19.38;;
18140;SDS011;9196;49.194;12.526;2024-01-11T05:13:56;30.45;;;19.90;;
18140;SDS011;9196;49.194;12.526;2024-01-11T05:16:25;29.73;;;18.60;;
18140;SDS011;9196;49.194;12.526;2024-01-11T05:18:53;34.92;;;19.95;;
18140;SDS011;9196;49.194;12.526;2024-01-11T05:21:21;32.45;;;19.25;;
18140;SDS011;9196;49.194;12.526;2024-01-11T05:23:48;36.53;;;19.50;;
18140;SDS011;9196;49.194;12.526;2024-01-11T05:26:16;32.92;;;18.55;;
18140;SDS011;9196;49.194;12.526;2024-01-11T05:28:45;33.47;;;19.80;;
18140;SDS011;9196;49.194;12.526;2024-01-11T05:31:12;30.48;;;19.48;;
18140;SDS011;9196;49.194;12.526;2024-01-11T05:33:42;36.45;;;19.40;;
18140;SDS011;9196;49.194;12.526;2024-01-11T05:36:09;33.72;;;18.23;;
18140;SDS011;9196;49.194;12.526;2024-01-11T05:38:35;29.88;;;18.83;;
18140;SDS011;9196;49.194;12.526;2024-01-11T05:41:04;30.95;;;19.88;;
18140;SDS011;9196;49.194;12.526;2024-01-11T05:43:31;30.73;;;19.00;;
18140;SDS011;9196;49.194;12.526;2024-01-11T05:45:57;41.05;;;19.98;;
18140;SDS011;9196;49.194;12.526;2024-01-11T05:48:24;35.97;;;19.48;;
18140;SDS011;9196;49.194;12.526;2024-01-11T05:50:52;43.00;;;21.77;;
18140;SDS011;9196;49.194;12.526;2024-01-11T05:53:19;40.95;;;21.10;;
18140;SDS011;9196;49.194;12.526;2024-01-11T05:55:46;39.08;;;21.13;;
18140;SDS011;9196;49.194;12.526;2024-01-11T05:58:13;35.63;;;21.98;;
18140;SDS011;9196;49.194;12.526;2024-01-11T06:00:40;41.10;;;23.58;;
18140;SDS011;9196;49.194;12.526;2024-01-11T06:03:07;43.72;;;23.02;;
18140;SDS011;9196;49.194;12.526;2024-01-11T06:05:34;42.25;;;23.77;;
18140;SDS011;9196;49.194;12.526;2024-01-11T06:08:02;37.90;;;20.75;;
18140;SDS011;9196;49.194;12.526;2024-01-11T06:10:29;37.70;;;21.27;;
18140;SDS011;9196;49.194;12.526;2024-01-11T06:12:56;32.35;;;20.38;;
18140;SDS011;9196;49.194;12.526;2024-01-11T06:15:23;38.35;;;22.42;;
18140;SDS011;9196;49.194;12.526;2024-01-11T06:17:50;37.55;;;20.58;;
18140;SDS011;9196;49.194;12.526;2024-01-11T06:20:16;33.40;;;20.85;;
18140;SDS011;9196;49.194;12.526;2024-01-11T06:22:43;35.60;;;21.13;;
18140;SDS011;9196;49.194;12.526;2024-01-11T06:25:11;37.88;;;21.58;;
18140;SDS011;9196;49.194;12.526;2024-01-11T06:27:38;40.15;;;21.65;;
18140;SDS011;9196;49.194;12.526;2024-01-11T06:30:05;45.17;;;21.05;;
18140;SDS011;9196;49.194;12.526;2024-01-11T06:32:33;32.97;;;21.02;;
18140;SDS011;9196;49.194;12.526;2024-01-11T06:35:00;51.55;;;22.27;;
18140;SDS011;9196;49.194;12.526;2024-01-11T06:37:27;40.45;;;21.45;;
18140;SDS011;9196;49.194;12.526;2024-01-11T06:39:53;40.58;;;22.88;;
18140;SDS011;9196;49.194;12.526;2024-01-11T06:42:22;41.20;;;22.73;;
18140;SDS011;9196;49.194;12.526;2024-01-11T06:44:48;45.22;;;24.55;;
18140;SDS011;9196;49.194;12.526;2024-01-11T06:47:15;38.55;;;22.70;;
18140;SDS011;9196;49.194;12.526;2024-01-11T06:49:42;39.60;;;22.08;;
18140;SDS011;9196;49.194;12.526;2024-01-11T06:52:09;33.60;;;20.67;;
18140;SDS011;9196;49.194;12.526;2024-01-11T06:54:35;38.13;;;22.60;;
18140;SDS011;9196;49.194;12.526;2024-01-11T06:57:02;43.83;;;22.23;;
18140;SDS011;9196;49.194;12.526;2024-01-11T06:59:31;43.20;;;23.30;;
18140;SDS011;9196;49.194;12.526;2024-01-11T07:01:57;38.40;;;22.80;;
18140;SDS011;9196;49.194;12.526;2024-01-11T07:04:24;44.08;;;23.77;;
18140;SDS011;9196;49.194;12.526;2024-01-11T07:06:51;41.40;;;23.80;;
18140;SDS011;9196;49.194;12.526;2024-01-11T07:09:18;37.05;;;22.20;;
18140;SDS011;9196;49.194;12.526;2024-01-11T07:11:45;39.97;;;22.65;;
18140;SDS011;9196;49.194;12.526;2024-01-11T07:14:12;45.25;;;22.88;;
18140;SDS011;9196;49.194;12.526;2024-01-11T07:16:40;48.47;;;25.83;;
18140;SDS011;9196;49.194;12.526;2024-01-11T07:19:07;53.45;;;27.63;;
18140;SDS011;9196;49.194;12.526;2024-01-11T07:21:33;49.28;;;29.30;;
18140;SDS011;9196;49.194;12.526;2024-01-11T07:24:00;44.03;;;26.10;;
18140;SDS011;9196;49.194;12.526;2024-01-11T07:26:27;51.35;;;28.15;;
18140;SDS011;9196;49.194;12.526;2024-01-11T07:28:54;47.00;;;24.38;;
18140;SDS011;9196;49.194;12.526;2024-01-11T07:31:21;49.35;;;27.30;;
18140;SDS011;9196;49.194;12.526;2024-01-11T07:33:49;53.10;;;27.88;;
18140;SDS011;9196;49.194;12.526;2024-01-11T07:36:16;62.38;;;29.17;;
18140;SDS011;9196;49.194;12.526;2024-01-11T07:38:43;47.67;;;25.17;;
18140;SDS011;9196;49.194;12.526;2024-01-11T07:41:10;47.20;;;25.40;;
18140;SDS011;9196;49.194;12.526;2024-01-11T07:43:37;43.63;;;25.05;;
18140;SDS011;9196;49.194;12.526;2024-01-11T07:46:04;39.47;;;22.95;;
18140;SDS011;9196;49.194;12.526;2024-01-11T07:48:32;37.55;;;21.70;;
18140;SDS011;9196;49.194;12.526;2024-01-11T07:51:01;38.13;;;20.30;;
18140;SDS011;9196;49.194;12.526;2024-01-11T07:53:29;35.30;;;20.33;;
18140;SDS011;9196;49.194;12.526;2024-01-11T07:55:57;32.88;;;20.00;;
18140;SDS011;9196;49.194;12.526;2024-01-11T07:58:24;36.78;;;20.73;;
18140;SDS011;9196;49.194;12.526;2024-01-11T08:00:51;40.55;;;19.73;;
18140;SDS011;9196;49.194;12.526;2024-01-11T08:03:19;42.83;;;21.95;;
18140;SDS011;9196;49.194;12.526;2024-01-11T08:05:46;37.35;;;22.20;;
18140;SDS011;9196;49.194;12.526;2024-01-11T08:08:16;40.17;;;22.65;;
18140;SDS011;9196;49.194;12.526;2024-01-11T08:10:43;45.58;;;22.55;;
18140;SDS011;9196;49.194;12.526;2024-01-11T08:13:10;43.83;;;23.60;;
18140;SDS011;9196;49.194;12.526;2024-01-11T08:15:38;41.65;;;23.48;;
18140;SDS011;9196;49.194;12.526;2024-01-11T08:18:05;40.83;;;23.05;;
18140;SDS011;9196;49.194;12.526;2024-01-11T08:20:31;42.58;;;25.48;;
18140;SDS011;9196;49.194;12.526;2024-01-11T08:22:59;47.53;;;26.77;;
18140;SDS011;9196;49.194;12.526;2024-01-11T08:25:27;52.97;;;25.83;;
18140;SDS011;9196;49.194;12.526;2024-01-11T08:27:54;45.97;;;27.70;;
18140;SDS011;9196;49.194;12.526;2024-01-11T08:30:21;47.08;;;26.52;;
18140;SDS011;9196;49.194;12.526;2024-01-11T08:32:48;45.15;;;26.10;;
18140;SDS011;9196;49.194;12.526;2024-01-11T08:35:14;50.80;;;26.55;;
18140;SDS011;9196;49.194;12.526;2024-01-11T08:37:41;43.20;;;27.23;;
18140;SDS011;9196;49.194;12.526;2024-01-11T08:40:08;52.42;;;28.23;;
18140;SDS011;9196;49.194;12.526;2024-01-11T08:42:37;46.63;;;29.17;;
18140;SDS011;9196;49.194;12.526;2024-01-11T08:45:05;50.00;;;28.90;;
18140;SDS011;9196;49.194;12.526;2024-01-11T08:47:32;50.72;;;29.48;;
18140;SDS011;9196;49.194;12.526;2024-01-11T08:49:59;57.78;;;30.80;;
18140;SDS011;9196;49.194;12.526;2024-01-11T08:52:30;53.90;;;33.28;;
18140;SDS011;9196;49.194;12.526;2024-01-11T08:54:57;59.17;;;30.23;;
18140;SDS011;9196;49.194;12.526;2024-01-11T08:57:24;65.43;;;36.63;;
18140;SDS011;9196;49.194;12.526;2024-01-11T08:59:53;66.65;;;36.10;;
18140;SDS011;9196;49.194;12.526;2024-01-11T09:02:20;47.15;;;28.65;;
18140;SDS011;9196;49.194;12.526;2024-01-11T09:04:47;45.47;;;29.08;;
18140;SDS011;9196;49.194;12.526;2024-01-11T09:07:14;49.30;;;28.60;;
18140;SDS011;9196;49.194;12.526;2024-01-11T09:09:41;53.58;;;29.58;;
18140;SDS011;9196;49.194;12.526;2024-01-11T09:12:09;60.38;;;36.13;;
18140;SDS011;9196;49.194;12.526;2024-01-11T09:14:36;49.80;;;30.13;;
18140;SDS011;9196;49.194;12.526;2024-01-11T09:17:05;52.05;;;30.73;;
18140;SDS011;9196;49.194;12.526;2024-01-11T09:19:33;58.15;;;32.58;;
18140;SDS011;9196;49.194;12.526;2024-01-11T09:22:00;66.65;;;34.80;;
18140;SDS011;9196;49.194;12.526;2024-01-11T09:24:27;55.42;;;32.60;;
18140;SDS011;9196;49.194;12.526;2024-01-11T09:26:53;58.13;;;32.60;;
18140;SDS011;9196;49.194;12.526;2024-01-11T09:29:20;58.65;;;32.88;;
18140;SDS011;9196;49.194;12.526;2024-01-11T09:31:47;58.63;;;33.05;;
18140;SDS011;9196;49.194;12.526;2024-01-11T09:34:16;50.85;;;31.25;;
18140;SDS011;9196;49.194;12.526;2024-01-11T09:36:43;53.85;;;31.90;;
18140;SDS011;9196;49.194;12.526;2024-01-11T09:39:10;53.17;;;30.45;;
18140;SDS011;9196;49.194;12.526;2024-01-11T09:41:38;54.08;;;32.42;;
18140;SDS011;9196;49.194;12.526;2024-01-11T09:44:10;61.83;;;34.72;;
18140;SDS011;9196;49.194;12.526;2024-01-11T09:46:36;61.00;;;33.08;;
18140;SDS011;9196;49.194;12.526;2024-01-11T09:49:03;53.60;;;31.20;;
18140;SDS011;9196;49.194;12.526;2024-01-11T09:51:32;52.00;;;30.08;;
18140;SDS011;9196;49.194;12.526;2024-01-11T09:54:03;50.85;;;32.00;;
18140;SDS011;9196;49.194;12.526;2024-01-11T09:56:32;56.95;;;33.30;;
18140;SDS011;9196;49.194;12.526;2024-01-11T09:59:00;58.35;;;31.45;;
18140;SDS011;9196;49.194;12.526;2024-01-11T10:01:27;48.53;;;29.83;;
18140;SDS011;9196;49.194;12.526;2024-01-11T10:03:54;54.42;;;32.75;;
18140;SDS011;9196;49.194;12.526;2024-01-11T10:06:21;60.75;;;34.25;;
18140;SDS011;9196;49.194;12.526;2024-01-11T10:08:53;54.05;;;30.15;;
18140;SDS011;9196;49.194;12.526;2024-01-11T10:11:20;48.33;;;28.30;;
18140;SDS011;9196;49.194;12.526;2024-01-11T10:13:47;48.65;;;26.27;;
18140;SDS011;9196;49.194;12.526;2024-01-11T10:16:14;52.58;;;28.75;;
18140;SDS011;9196;49.194;12.526;2024-01-11T10:18:41;42.83;;;26.13;;
18140;SDS011;9196;49.194;12.526;2024-01-11T10:21:08;47.80;;;26.70;;
18140;SDS011;9196;49.194;12.526;2024-01-11T10:23:35;46.40;;;27.08;;
18140;SDS011;9196;49.194;12.526;2024-01-11T10:26:05;51.47;;;28.42;;
18140;SDS011;9196;49.194;12.526;2024-01-11T10:28:33;43.60;;;27.48;;
18140;SDS011;9196;49.194;12.526;2024-01-11T10:31:03;44.75;;;26.42;;
18140;SDS011;9196;49.194;12.526;2024-01-11T10:33:32;42.58;;;24.90;;
18140;SDS011;9196;49.194;12.526;2024-01-11T10:36:00;39.30;;;24.30;;
18140;SDS011;9196;49.194;12.526;2024-01-11T10:38:28;37.97;;;23.05;;
18140;SDS011;9196;49.194;12.526;2024-01-11T10:41:00;39.05;;;23.65;;
18140;SDS011;9196;49.194;12.526;2024-01-11T10:43:31;36.92;;;23.30;;
18140;SDS011;9196;49.194;12.526;2024-01-11T10:46:01;38.97;;;23.67;;
18140;SDS011;9196;49.194;12.526;2024-01-11T10:48:31;41.35;;;24.52;;
18140;SDS011;9196;49.194;12.526;2024-01-11T10:51:03;33.45;;;22.15;;
18140;SDS011;9196;49.194;12.526;2024-01-11T10:53:36;39.97;;;23.42;;
18140;SDS011;9196;49.194;12.526;2024-01-11T10:56:10;46.88;;;23.77;;
18140;SDS011;9196;49.194;12.526;2024-01-11T10:58:40;38.97;;;24.10;;
18140;SDS011;9196;49.194;12.526;2024-01-11T11:01:08;38.15;;;23.25;;
18140;SDS011;9196;49.194;12.526;2024-01-11T11:03:35;35.83;;;21.77;;
18140;SDS011;9196;49.194;12.526;2024-01-11T11:06:04;35.83;;;22.05;;
18140;SDS011;9196;49.194;12.526;2024-01-11T11:08:32;31.35;;;20.70;;
18140;SDS011;9196;49.194;12.526;2024-01-11T11:11:02;36.45;;;22.30;;
18140;SDS011;9196;49.194;12.526;2024-01-11T11:13:31;31.55;;;18.35;;
18140;SDS011;9196;49.194;12.526;2024-01-11T11:16:01;30.90;;;19.05;;
18140;SDS011;9196;49.194;12.526;2024-01-11T11:18:29;29.10;;;18.15;;
18140;SDS011;9196;49.194;12.526;2024-01-11T11:20:56;37.50;;;21.15;;
18140;SDS011;9196;49.194;12.526;2024-01-11T11:23:23;33.50;;;19.85;;
18140;SDS011;9196;49.194;12.526;2024-01-11T11:25:50;29.30;;;19.13;;
18140;SDS011;9196;49.194;12.526;2024-01-11T11:28:21;30.50;;;18.35;;
18140;SDS011;9196;49.194;12.526;2024-01-11T11:30:49;33.45;;;19.27;;
18140;SDS011;9196;49.194;12.526;2024-01-11T11:33:20;38.03;;;21.27;;
18140;SDS011;9196;49.194;12.526;2024-01-11T11:35:48;29.52;;;18.73;;
18140;SDS011;9196;49.194;12.526;2024-01-11T11:38:18;32.22;;;19.55;;
18140;SDS011;9196;49.194;12.526;2024-01-11T11:40:47;34.60;;;21.27;;
18140;SDS011;9196;49.194;12.526;2024-01-11T11:43:15;39.17;;;20.80;;
18140;SDS011;9196;49.194;12.526;2024-01-11T11:45:43;41.20;;;24.67;;
18140;SDS011;9196;49.194;12.526;2024-01-11T11:51:21;36.75;;;21.88;;
18140;SDS011;9196;49.194;12.526;2024-01-11T11:53:49;34.22;;;20.63;;
18140;SDS011;9196;49.194;12.526;2024-01-11T11:56:17;29.92;;;19.92;;
18140;SDS011;9196;49.194;12.526;2024-01-11T11:58:45;39.40;;;20.77;;
18140;SDS011;9196;49.194;12.526;2024-01-11T12:01:13;33.60;;;21.00;;
18140;SDS011;9196;49.194;12.526;2024-01-11T12:03:42;42.45;;;21.92;;
18140;SDS011;9196;49.194;12.526;2024-01-11T12:06:15;34.95;;;23.33;;
18140;SDS011;9196;49.194;12.526;2024-01-11T12:08:43;32.75;;;20.55;;
18140;SDS011;9196;49.194;12.526;2024-01-11T12:11:12;39.08;;;24.40;;
18140;SDS011;9196;49.194;12.526;2024-01-11T12:13:39;38.00;;;24.48;;
18140;SDS011;9196;49.194;12.526;2024-01-11T12:16:09;40.10;;;24.30;;
18140;SDS011;9196;49.194;12.526;2024-01-11T12:18:36;39.63;;;23.48;;
18140;SDS011;9196;49.194;12.526;2024-01-11T12:21:03;38.17;;;24.00;;
18140;SDS011;9196;49.194;12.526;2024-01-11T12:23:32;40.25;;;22.38;;
18140;SDS011;9196;49.194;12.526;2024-01-11T12:26:00;33.58;;;20.90;;
18140;SDS011;9196;49.194;12.526;2024-01-11T12:28:28;33.08;;;22.45;;
18140;SDS011;9196;49.194;12.526;2024-01-11T12:30:55;33.10;;;21.55;;
18140;SDS011;9196;49.194;12.526;2024-01-11T12:33:22;34.50;;;20.77;;
18140;SDS011;9196;49.194;12.526;2024-01-11T12:35:49;31.73;;;19.20;;
18140;SDS011;9196;49.194;12.526;2024-01-11T12:38:16;32.20;;;21.15;;
18140;SDS011;9196;49.194;12.526;2024-01-11T12:40:45;37.47;;;22.80;;
18140;SDS011;9196;49.194;12.526;2024-01-11T12:43:12;32.95;;;22.77;;
18140;SDS011;9196;49.194;12.526;2024-01-11T12:45:40;33.28;;;21.25;;
18140;SDS011;9196;49.194;12.526;2024-01-11T12:48:07;35.47;;;21.98;;
18140;SDS011;9196;49.194;12.526;2024-01-11T12:50:34;39.53;;;23.52;;
18140;SDS011;9196;49.194;12.526;2024-01-11T12:53:06;37.25;;;22.30;;
18140;SDS011;9196;49.194;12.526;2024-01-11T12:55:33;39.55;;;23.88;;
18140;SDS011;9196;49.194;12.526;2024-01-11T12:58:06;30.85;;;19.42;;
18140;SDS011;9196;49.194;12.526;2024-01-11T13:00:34;34.88;;;22.40;;
18140;SDS011;9196;49.194;12.526;2024-01-11T13:03:01;31.27;;;21.58;;
18140;SDS011;9196;49.194;12.526;2024-01-11T13:05:28;33.20;;;19.90;;
18140;SDS011;9196;49.194;12.526;2024-01-11T13:07:59;36.28;;;21.85;;
18140;SDS011;9196;49.194;12.526;2024-01-11T13:10:27;40.80;;;20.75;;
18140;SDS011;9196;49.194;12.526;2024-01-11T13:12:54;36.17;;;22.90;;
18140;SDS011;9196;49.194;12.526;2024-01-11T13:15:23;37.78;;;20.02;;
18140;SDS011;9196;49.194;12.526;2024-01-11T13:17:50;35.15;;;21.30;;
18140;SDS011;9196;49.194;12.526;2024-01-11T13:20:18;31.60;;;20.38;;
18140;SDS011;9196;49.194;12.526;2024-01-11T13:22:45;32.33;;;20.45;;
18140;SDS011;9196;49.194;12.526;2024-01-11T13:25:12;34.08;;;21.80;;
18140;SDS011;9196;49.194;12.526;2024-01-11T13:27:39;32.97;;;20.65;;
18140;SDS011;9196;49.194;12.526;2024-01-11T13:30:06;33.53;;;21.02;;
18140;SDS011;9196;49.194;12.526;2024-01-11T13:32:35;34.10;;;23.40;;
18140;SDS011;9196;49.194;12.526;2024-01-11T13:35:01;30.67;;;20.77;;
18140;SDS011;9196;49.194;12.526;2024-01-11T13:37:29;37.33;;;21.95;;
18140;SDS011;9196;49.194;12.526;2024-01-11T13:39:55;38.03;;;20.48;;
18140;SDS011;9196;49.194;12.526;2024-01-11T13:42:22;33.08;;;20.67;;
18140;SDS011;9196;49.194;12.526;2024-01-11T13:44:49;37.05;;;20.95;;
18140;SDS011;9196;49.194;12.526;2024-01-11T13:47:16;36.85;;;22.67;;
18140;SDS011;9196;49.194;12.526;2024-01-11T13:49:44;32.33;;;21.48;;
18140;SDS011;9196;49.194;12.526;2024-01-11T13:52:11;37.53;;;22.35;;
18140;SDS011;9196;49.194;12.526;2024-01-11T13:54:38;34.03;;;21.67;;
18140;SDS011;9196;49.194;12.526;2024-01-11T13:57:05;35.30;;;20.83;;
18140;SDS011;9196;49.194;12.526;2024-01-11T13:59:32;33.60;;;20.75;;
18140;SDS011;9196;49.194;12.526;2024-01-11T14:01:59;42.38;;;19.70;;
18140;SDS011;9196;49.194;12.526;2024-01-11T14:04:27;34.28;;;21.52;;
18140;SDS011;9196;49.194;12.526;2024-01-11T14:06:55;30.27;;;19.83;;
18140;SDS011;9196;49.194;12.526;2024-01-11T14:09:22;28.63;;;18.92;;
18140;SDS011;9196;49.194;12.526;2024-01-11T14:11:49;31.52;;;19.92;;
18140;SDS011;9196;49.194;12.526;2024-01-11T14:14:16;35.38;;;20.67;;
18140;SDS011;9196;49.194;12.526;2024-01-11T14:16:43;39.22;;;22.23;;
18140;SDS011;9196;49.194;12.526;2024-01-11T14:19:11;35.28;;;21.58;;
18140;SDS011;9196;49.194;12.526;2024-01-11T14:21:38;31.60;;;20.42;;
18140;SDS011;9196;49.194;12.526;2024-01-11T14:24:06;55.92;;;23.92;;
18140;SDS011;9196;49.194;12.526;2024-01-11T14:26:34;39.70;;;23.13;;